sensor_id;sensor_type;location;lat;lon;timestamp;P1;durP1;ratioP1;P2;durP2;ratioP2
81901;SDS011;71369;50.796;3.290;2023-08-24T00:01:17;10.55;;;7.47;;
81901;SDS011;71369;50.796;3.290;2023-08-24T00:03:46;14.10;;;7.70;;
81901;SDS011;71369;50.796;3.290;2023-08-24T00:06:12;11.30;;;7.75;;
81901;SDS011;71369;50.796;3.290;2023-08-24T00:08:38;12.90;;;8.07;;
81901;SDS011;71369;50.796;3.290;2023-08-24T00:11:04;13.85;;;8.55;;
81901;SDS011;71369;50.796;3.290;2023-08-24T00:13:30;16.25;;;8.00;;
81901;SDS011;71369;50.796;3.290;2023-08-24T00:15:56;12.73;;;7.80;;
81901;SDS011;71369;50.796;3.290;2023-08-24T00:18:22;15.57;;;8.45;;
81901;SDS011;71369;50.796;3.290;2023-08-24T00:20:49;11.27;;;7.93;;
81901;SDS011;71369;50.796;3.290;2023-08-24T00:23:15;17.77;;;9.20;;
81901;SDS011;71369;50.796;3.290;2023-08-24T00:25:41;14.55;;;8.65;;
81901;SDS011;71369;50.796;3.290;2023-08-24T00:28:07;12.93;;;7.40;;
81901;SDS011;71369;50.796;3.290;2023-08-24T00:30:33;12.80;;;8.40;;
81901;SDS011;71369;50.796;3.290;2023-08-24T00:32:59;13.77;;;7.82;;
81901;SDS011;71369;50.796;3.290;2023-08-24T00:35:25;11.48;;;8.10;;
81901;SDS011;71369;50.796;3.290;2023-08-24T00:37:51;14.25;;;8.57;;
81901;SDS011;71369;50.796;3.290;2023-08-24T00:40:17;14.00;;;8.48;;
81901;SDS011;71369;50.796;3.290;2023-08-24T00:42:44;14.48;;;8.00;;
81901;SDS011;71369;50.796;3.290;2023-08-24T00:45:11;13.48;;;8.73;;
81901;SDS011;71369;50.796;3.290;2023-08-24T00:47:45;12.02;;;7.88;;
81901;SDS011;71369;50.796;3.290;2023-08-24T00:50:12;13.20;;;8.30;;
81901;SDS011;71369;50.796;3.290;2023-08-24T00:52:39;13.48;;;8.32;;
81901;SDS011;71369;50.796;3.290;2023-08-24T00:55:06;14.73;;;9.05;;
81901;SDS011;71369;50.796;3.290;2023-08-24T00:57:33;15.15;;;8.32;;
81901;SDS011;71369;50.796;3.290;2023-08-24T01:00:02;12.75;;;9.02;;
81901;SDS011;71369;50.796;3.290;2023-08-24T01:02:31;14.27;;;9.48;;
81901;SDS011;71369;50.796;3.290;2023-08-24T01:04:58;14.77;;;10.48;;
81901;SDS011;71369;50.796;3.290;2023-08-24T01:07:24;13.88;;;9.90;;
81901;SDS011;71369;50.796;3.290;2023-08-24T01:09:50;14.80;;;10.45;;
81901;SDS011;71369;50.796;3.290;2023-08-24T01:12:28;14.27;;;10.73;;
81901;SDS011;71369;50.796;3.290;2023-08-24T01:17:39;16.95;;;11.32;;
81901;SDS011;71369;50.796;3.290;2023-08-24T01:20:09;18.83;;;12.70;;
81901;SDS011;71369;50.796;3.290;2023-08-24T01:22:54;16.75;;;12.48;;
81901;SDS011;71369;50.796;3.290;2023-08-24T01:28:11;20.58;;;12.60;;
81901;SDS011;71369;50.796;3.290;2023-08-24T01:30:38;17.27;;;11.85;;
81901;SDS011;71369;50.796;3.290;2023-08-24T01:33:04;17.30;;;12.50;;
81901;SDS011;71369;50.796;3.290;2023-08-24T01:35:30;18.02;;;12.13;;
81901;SDS011;71369;50.796;3.290;2023-08-24T01:37:57;18.15;;;12.95;;
81901;SDS011;71369;50.796;3.290;2023-08-24T01:40:32;17.87;;;11.60;;
81901;SDS011;71369;50.796;3.290;2023-08-24T01:43:09;18.15;;;12.43;;
81901;SDS011;71369;50.796;3.290;2023-08-24T01:45:35;16.30;;;11.20;;
81901;SDS011;71369;50.796;3.290;2023-08-24T01:48:02;16.80;;;11.48;;
81901;SDS011;71369;50.796;3.290;2023-08-24T01:50:29;20.02;;;11.60;;
81901;SDS011;71369;50.796;3.290;2023-08-24T01:52:56;14.55;;;11.23;;
81901;SDS011;71369;50.796;3.290;2023-08-24T01:55:22;20.65;;;10.90;;
81901;SDS011;71369;50.796;3.290;2023-08-24T01:57:48;16.67;;;11.63;;
81901;SDS011;71369;50.796;3.290;2023-08-24T02:00:15;14.02;;;10.82;;
81901;SDS011;71369;50.796;3.290;2023-08-24T02:02:44;15.70;;;11.32;;
81901;SDS011;71369;50.796;3.290;2023-08-24T02:05:10;17.88;;;11.15;;
81901;SDS011;71369;50.796;3.290;2023-08-24T02:07:35;17.67;;;12.27;;
81901;SDS011;71369;50.796;3.290;2023-08-24T02:10:01;18.88;;;11.32;;
81901;SDS011;71369;50.796;3.290;2023-08-24T02:12:27;20.17;;;12.20;;
81901;SDS011;71369;50.796;3.290;2023-08-24T02:14:53;15.82;;;11.98;;
81901;SDS011;71369;50.796;3.290;2023-08-24T02:17:18;16.83;;;12.02;;
81901;SDS011;71369;50.796;3.290;2023-08-24T02:19:44;18.70;;;11.38;;
81901;SDS011;71369;50.796;3.290;2023-08-24T02:22:10;15.15;;;11.43;;
81901;SDS011;71369;50.796;3.290;2023-08-24T02:24:35;16.63;;;12.27;;
81901;SDS011;71369;50.796;3.290;2023-08-24T02:27:01;18.30;;;12.13;;
81901;SDS011;71369;50.796;3.290;2023-08-24T02:29:28;15.75;;;12.05;;
81901;SDS011;71369;50.796;3.290;2023-08-24T02:31:55;16.38;;;11.77;;
81901;SDS011;71369;50.796;3.290;2023-08-24T02:34:20;17.67;;;11.75;;
81901;SDS011;71369;50.796;3.290;2023-08-24T02:36:46;15.52;;;11.65;;
81901;SDS011;71369;50.796;3.290;2023-08-24T02:39:12;18.08;;;13.40;;
81901;SDS011;71369;50.796;3.290;2023-08-24T02:41:38;15.38;;;11.18;;
81901;SDS011;71369;50.796;3.290;2023-08-24T02:44:04;16.40;;;12.07;;
81901;SDS011;71369;50.796;3.290;2023-08-24T02:46:29;15.57;;;12.43;;
81901;SDS011;71369;50.796;3.290;2023-08-24T02:48:55;17.02;;;11.85;;
81901;SDS011;71369;50.796;3.290;2023-08-24T02:51:21;18.00;;;11.38;;
81901;SDS011;71369;50.796;3.290;2023-08-24T02:53:48;16.27;;;11.50;;
81901;SDS011;71369;50.796;3.290;2023-08-24T02:56:14;15.45;;;11.75;;
81901;SDS011;71369;50.796;3.290;2023-08-24T02:58:40;16.58;;;12.38;;
81901;SDS011;71369;50.796;3.290;2023-08-24T03:01:06;15.65;;;12.07;;
81901;SDS011;71369;50.796;3.290;2023-08-24T03:03:32;19.30;;;12.13;;
81901;SDS011;71369;50.796;3.290;2023-08-24T03:06:00;20.60;;;11.95;;
81901;SDS011;71369;50.796;3.290;2023-08-24T03:08:28;17.50;;;13.13;;
81901;SDS011;71369;50.796;3.290;2023-08-24T03:10:54;16.67;;;12.23;;
81901;SDS011;71369;50.796;3.290;2023-08-24T03:13:20;15.25;;;11.32;;
81901;SDS011;71369;50.796;3.290;2023-08-24T03:15:46;15.77;;;10.82;;
81901;SDS011;71369;50.796;3.290;2023-08-24T03:18:12;17.38;;;10.70;;
81901;SDS011;71369;50.796;3.290;2023-08-24T03:20:38;14.52;;;11.00;;
81901;SDS011;71369;50.796;3.290;2023-08-24T03:23:05;15.52;;;10.45;;
81901;SDS011;71369;50.796;3.290;2023-08-24T03:25:34;16.33;;;11.40;;
81901;SDS011;71369;50.796;3.290;2023-08-24T03:28:01;16.73;;;10.77;;
81901;SDS011;71369;50.796;3.290;2023-08-24T03:30:28;13.90;;;10.93;;
81901;SDS011;71369;50.796;3.290;2023-08-24T03:32:54;14.40;;;10.25;;
81901;SDS011;71369;50.796;3.290;2023-08-24T03:35:19;16.63;;;11.05;;
81901;SDS011;71369;50.796;3.290;2023-08-24T03:37:46;15.25;;;10.05;;
81901;SDS011;71369;50.796;3.290;2023-08-24T03:40:12;11.65;;;9.65;;
81901;SDS011;71369;50.796;3.290;2023-08-24T03:42:38;13.13;;;9.40;;
81901;SDS011;71369;50.796;3.290;2023-08-24T03:45:04;14.95;;;10.32;;
81901;SDS011;71369;50.796;3.290;2023-08-24T03:47:30;17.55;;;11.10;;
81901;SDS011;71369;50.796;3.290;2023-08-24T03:49:56;16.13;;;9.88;;
81901;SDS011;71369;50.796;3.290;2023-08-24T03:52:22;13.68;;;9.73;;
81901;SDS011;71369;50.796;3.290;2023-08-24T03:54:48;14.70;;;10.65;;
81901;SDS011;71369;50.796;3.290;2023-08-24T03:57:14;15.25;;;10.35;;
81901;SDS011;71369;50.796;3.290;2023-08-24T03:59:40;17.33;;;9.85;;
81901;SDS011;71369;50.796;3.290;2023-08-24T04:02:06;13.90;;;10.20;;
81901;SDS011;71369;50.796;3.290;2023-08-24T04:04:32;14.55;;;9.52;;
81901;SDS011;71369;50.796;3.290;2023-08-24T04:06:58;13.98;;;9.88;;
81901;SDS011;71369;50.796;3.290;2023-08-24T04:09:24;11.85;;;10.07;;
81901;SDS011;71369;50.796;3.290;2023-08-24T04:11:50;15.00;;;10.63;;
81901;SDS011;71369;50.796;3.290;2023-08-24T04:14:15;16.00;;;10.57;;
81901;SDS011;71369;50.796;3.290;2023-08-24T04:16:41;15.82;;;10.55;;
81901;SDS011;71369;50.796;3.290;2023-08-24T04:19:07;15.60;;;9.65;;
81901;SDS011;71369;50.796;3.290;2023-08-24T04:21:33;14.30;;;10.00;;
81901;SDS011;71369;50.796;3.290;2023-08-24T04:23:59;14.95;;;9.50;;
81901;SDS011;71369;50.796;3.290;2023-08-24T04:26:25;14.90;;;10.60;;
81901;SDS011;71369;50.796;3.290;2023-08-24T04:28:50;13.20;;;10.45;;
81901;SDS011;71369;50.796;3.290;2023-08-24T04:31:16;16.77;;;10.90;;
81901;SDS011;71369;50.796;3.290;2023-08-24T04:33:42;16.52;;;10.85;;
81901;SDS011;71369;50.796;3.290;2023-08-24T04:36:07;17.00;;;10.77;;
81901;SDS011;71369;50.796;3.290;2023-08-24T04:38:33;16.70;;;10.75;;
81901;SDS011;71369;50.796;3.290;2023-08-24T04:40:59;13.75;;;10.43;;
81901;SDS011;71369;50.796;3.290;2023-08-24T04:43:25;13.07;;;10.05;;
81901;SDS011;71369;50.796;3.290;2023-08-24T04:45:52;13.10;;;10.15;;
81901;SDS011;71369;50.796;3.290;2023-08-24T04:48:21;14.70;;;9.77;;
81901;SDS011;71369;50.796;3.290;2023-08-24T04:50:48;15.13;;;10.90;;
81901;SDS011;71369;50.796;3.290;2023-08-24T04:53:15;16.17;;;11.35;;
81901;SDS011;71369;50.796;3.290;2023-08-24T04:55:43;13.05;;;10.90;;
81901;SDS011;71369;50.796;3.290;2023-08-24T04:58:09;15.65;;;10.80;;
81901;SDS011;71369;50.796;3.290;2023-08-24T05:00:36;16.80;;;11.40;;
81901;SDS011;71369;50.796;3.290;2023-08-24T05:03:03;14.88;;;11.13;;
81901;SDS011;71369;50.796;3.290;2023-08-24T05:05:30;13.73;;;10.82;;
81901;SDS011;71369;50.796;3.290;2023-08-24T05:08:00;13.57;;;10.23;;
81901;SDS011;71369;50.796;3.290;2023-08-24T05:10:30;17.30;;;11.88;;
81901;SDS011;71369;50.796;3.290;2023-08-24T05:12:57;16.65;;;11.35;;
81901;SDS011;71369;50.796;3.290;2023-08-24T05:15:23;15.05;;;10.40;;
81901;SDS011;71369;50.796;3.290;2023-08-24T05:17:49;17.63;;;11.45;;
81901;SDS011;71369;50.796;3.290;2023-08-24T05:20:17;14.00;;;11.32;;
81901;SDS011;71369;50.796;3.290;2023-08-24T05:22:43;18.38;;;11.77;;
81901;SDS011;71369;50.796;3.290;2023-08-24T05:25:09;16.58;;;11.13;;
81901;SDS011;71369;50.796;3.290;2023-08-24T05:27:35;15.63;;;11.30;;
81901;SDS011;71369;50.796;3.290;2023-08-24T05:30:00;17.15;;;11.63;;
81901;SDS011;71369;50.796;3.290;2023-08-24T05:32:26;15.30;;;11.40;;
81901;SDS011;71369;50.796;3.290;2023-08-24T05:34:52;16.50;;;11.90;;
81901;SDS011;71369;50.796;3.290;2023-08-24T05:37:18;15.82;;;10.52;;
81901;SDS011;71369;50.796;3.290;2023-08-24T05:39:43;15.73;;;11.55;;
81901;SDS011;71369;50.796;3.290;2023-08-24T05:42:09;15.18;;;10.52;;
81901;SDS011;71369;50.796;3.290;2023-08-24T05:44:35;15.02;;;9.85;;
81901;SDS011;71369;50.796;3.290;2023-08-24T05:47:00;13.43;;;10.35;;
81901;SDS011;71369;50.796;3.290;2023-08-24T05:49:26;14.40;;;11.30;;
81901;SDS011;71369;50.796;3.290;2023-08-24T05:51:52;15.43;;;11.20;;
81901;SDS011;71369;50.796;3.290;2023-08-24T05:54:18;17.95;;;11.20;;
81901;SDS011;71369;50.796;3.290;2023-08-24T05:56:44;16.08;;;12.07;;
81901;SDS011;71369;50.796;3.290;2023-08-24T05:59:11;14.80;;;11.43;;
81901;SDS011;71369;50.796;3.290;2023-08-24T06:01:36;18.10;;;11.85;;
81901;SDS011;71369;50.796;3.290;2023-08-24T06:04:04;15.40;;;12.23;;
81901;SDS011;71369;50.796;3.290;2023-08-24T06:06:33;16.10;;;11.90;;
81901;SDS011;71369;50.796;3.290;2023-08-24T06:08:59;14.63;;;11.32;;
81901;SDS011;71369;50.796;3.290;2023-08-24T06:11:24;13.98;;;10.93;;
81901;SDS011;71369;50.796;3.290;2023-08-24T06:13:50;13.98;;;9.68;;
81901;SDS011;71369;50.796;3.290;2023-08-24T06:16:18;11.90;;;8.65;;
81901;SDS011;71369;50.796;3.290;2023-08-24T06:18:45;13.80;;;8.45;;
81901;SDS011;71369;50.796;3.290;2023-08-24T06:21:11;9.98;;;7.90;;
81901;SDS011;71369;50.796;3.290;2023-08-24T06:23:38;13.80;;;8.10;;
81901;SDS011;71369;50.796;3.290;2023-08-24T06:26:03;14.73;;;8.48;;
81901;SDS011;71369;50.796;3.290;2023-08-24T06:28:30;13.27;;;7.70;;
81901;SDS011;71369;50.796;3.290;2023-08-24T06:30:56;12.90;;;6.95;;
81901;SDS011;71369;50.796;3.290;2023-08-24T06:33:26;12.40;;;7.03;;
81901;SDS011;71369;50.796;3.290;2023-08-24T06:35:56;11.23;;;7.53;;
81901;SDS011;71369;50.796;3.290;2023-08-24T06:38:22;12.00;;;7.80;;
81901;SDS011;71369;50.796;3.290;2023-08-24T06:40:48;13.20;;;8.40;;
81901;SDS011;71369;50.796;3.290;2023-08-24T06:43:14;16.00;;;8.68;;
81901;SDS011;71369;50.796;3.290;2023-08-24T06:45:40;13.15;;;8.32;;
81901;SDS011;71369;50.796;3.290;2023-08-24T06:48:06;13.63;;;8.05;;
81901;SDS011;71369;50.796;3.290;2023-08-24T06:50:32;15.40;;;8.82;;
81901;SDS011;71369;50.796;3.290;2023-08-24T06:52:58;12.27;;;8.32;;
81901;SDS011;71369;50.796;3.290;2023-08-24T06:55:26;11.00;;;7.55;;
81901;SDS011;71369;50.796;3.290;2023-08-24T06:57:52;15.85;;;9.48;;
81901;SDS011;71369;50.796;3.290;2023-08-24T07:00:21;11.05;;;8.43;;
81901;SDS011;71369;50.796;3.290;2023-08-24T07:02:48;15.05;;;8.77;;
81901;SDS011;71369;50.796;3.290;2023-08-24T07:05:15;14.98;;;9.10;;
81901;SDS011;71369;50.796;3.290;2023-08-24T07:07:46;12.50;;;8.73;;
81901;SDS011;71369;50.796;3.290;2023-08-24T07:10:14;15.70;;;9.55;;
81901;SDS011;71369;50.796;3.290;2023-08-24T07:12:40;13.68;;;9.13;;
81901;SDS011;71369;50.796;3.290;2023-08-24T07:15:06;11.23;;;8.77;;
81901;SDS011;71369;50.796;3.290;2023-08-24T07:17:33;12.93;;;9.43;;
81901;SDS011;71369;50.796;3.290;2023-08-24T07:19:59;14.30;;;9.27;;
81901;SDS011;71369;50.796;3.290;2023-08-24T07:22:25;12.35;;;9.02;;
81901;SDS011;71369;50.796;3.290;2023-08-24T07:24:53;11.25;;;9.18;;
81901;SDS011;71369;50.796;3.290;2023-08-24T07:27:19;15.30;;;9.55;;
81901;SDS011;71369;50.796;3.290;2023-08-24T07:29:45;12.85;;;8.93;;
81901;SDS011;71369;50.796;3.290;2023-08-24T07:32:11;14.25;;;10.07;;
81901;SDS011;71369;50.796;3.290;2023-08-24T07:34:36;13.63;;;9.43;;
81901;SDS011;71369;50.796;3.290;2023-08-24T07:37:02;14.23;;;10.30;;
81901;SDS011;71369;50.796;3.290;2023-08-24T07:39:28;16.50;;;9.93;;
81901;SDS011;71369;50.796;3.290;2023-08-24T07:41:54;17.98;;;9.85;;
81901;SDS011;71369;50.796;3.290;2023-08-24T07:44:20;13.02;;;9.23;;
81901;SDS011;71369;50.796;3.290;2023-08-24T07:46:46;13.95;;;10.25;;
81901;SDS011;71369;50.796;3.290;2023-08-24T07:49:13;16.73;;;8.88;;
81901;SDS011;71369;50.796;3.290;2023-08-24T07:51:39;14.73;;;10.05;;
81901;SDS011;71369;50.796;3.290;2023-08-24T07:54:04;12.48;;;9.73;;
81901;SDS011;71369;50.796;3.290;2023-08-24T07:56:32;16.85;;;10.45;;
81901;SDS011;71369;50.796;3.290;2023-08-24T07:58:58;22.50;;;11.05;;
81901;SDS011;71369;50.796;3.290;2023-08-24T08:01:24;11.60;;;9.65;;
81901;SDS011;71369;50.796;3.290;2023-08-24T08:03:49;14.27;;;10.05;;
81901;SDS011;71369;50.796;3.290;2023-08-24T08:06:15;13.40;;;10.00;;
81901;SDS011;71369;50.796;3.290;2023-08-24T08:08:41;16.38;;;10.63;;
81901;SDS011;71369;50.796;3.290;2023-08-24T08:11:07;16.77;;;12.10;;
81901;SDS011;71369;50.796;3.290;2023-08-24T08:13:33;16.60;;;11.95;;
81901;SDS011;71369;50.796;3.290;2023-08-24T08:16:05;14.93;;;10.75;;
81901;SDS011;71369;50.796;3.290;2023-08-24T08:18:32;16.05;;;10.63;;
81901;SDS011;71369;50.796;3.290;2023-08-24T08:20:59;18.48;;;11.35;;
81901;SDS011;71369;50.796;3.290;2023-08-24T08:23:25;13.68;;;11.27;;
81901;SDS011;71369;50.796;3.290;2023-08-24T08:25:51;13.23;;;10.98;;
81901;SDS011;71369;50.796;3.290;2023-08-24T08:28:17;13.48;;;11.13;;
81901;SDS011;71369;50.796;3.290;2023-08-24T08:30:43;16.70;;;12.30;;
81901;SDS011;71369;50.796;3.290;2023-08-24T08:33:09;18.58;;;11.68;;
81901;SDS011;71369;50.796;3.290;2023-08-24T08:35:38;14.18;;;11.30;;
81901;SDS011;71369;50.796;3.290;2023-08-24T08:38:05;16.38;;;11.90;;
81901;SDS011;71369;50.796;3.290;2023-08-24T08:40:32;18.63;;;12.50;;
81901;SDS011;71369;50.796;3.290;2023-08-24T08:43:02;22.20;;;13.30;;
81901;SDS011;71369;50.796;3.290;2023-08-24T08:45:29;22.98;;;14.30;;
81901;SDS011;71369;50.796;3.290;2023-08-24T08:47:59;22.63;;;14.90;;
81901;SDS011;71369;50.796;3.290;2023-08-24T08:50:26;21.40;;;14.10;;
81901;SDS011;71369;50.796;3.290;2023-08-24T08:52:52;34.30;;;13.00;;
81901;SDS011;71369;50.796;3.290;2023-08-24T08:55:18;17.30;;;10.38;;
81901;SDS011;71369;50.796;3.290;2023-08-24T08:57:48;15.18;;;10.07;;
81901;SDS011;71369;50.796;3.290;2023-08-24T09:00:19;14.90;;;10.25;;
81901;SDS011;71369;50.796;3.290;2023-08-24T09:02:45;13.73;;;10.90;;
81901;SDS011;71369;50.796;3.290;2023-08-24T09:05:14;15.15;;;9.93;;
81901;SDS011;71369;50.796;3.290;2023-08-24T09:07:40;14.63;;;10.93;;
81901;SDS011;71369;50.796;3.290;2023-08-24T09:10:08;17.90;;;9.85;;
81901;SDS011;71369;50.796;3.290;2023-08-24T09:12:35;14.30;;;9.18;;
81901;SDS011;71369;50.796;3.290;2023-08-24T09:15:09;13.90;;;8.60;;
81901;SDS011;71369;50.796;3.290;2023-08-24T09:17:35;11.77;;;7.80;;
81901;SDS011;71369;50.796;3.290;2023-08-24T09:20:06;10.75;;;6.72;;
81901;SDS011;71369;50.796;3.290;2023-08-24T09:22:39;10.77;;;7.78;;
81901;SDS011;71369;50.796;3.290;2023-08-24T09:25:06;12.00;;;8.85;;
81901;SDS011;71369;50.796;3.290;2023-08-24T09:40:03;12.27;;;9.55;;
81901;SDS011;71369;50.796;3.290;2023-08-24T09:42:40;12.75;;;9.43;;
81901;SDS011;71369;50.796;3.290;2023-08-24T09:45:11;15.43;;;8.82;;
81901;SDS011;71369;50.796;3.290;2023-08-24T09:47:39;11.35;;;8.77;;
81901;SDS011;71369;50.796;3.290;2023-08-24T09:50:05;14.02;;;8.70;;
81901;SDS011;71369;50.796;3.290;2023-08-24T09:52:32;13.32;;;8.63;;
81901;SDS011;71369;50.796;3.290;2023-08-24T09:55:00;11.40;;;8.00;;
81901;SDS011;71369;50.796;3.290;2023-08-24T09:57:37;13.60;;;8.73;;
81901;SDS011;71369;50.796;3.290;2023-08-24T10:00:07;10.80;;;7.35;;
81901;SDS011;71369;50.796;3.290;2023-08-24T10:02:50;10.60;;;8.20;;
81901;SDS011;71369;50.796;3.290;2023-08-24T10:05:23;9.77;;;6.95;;
81901;SDS011;71369;50.796;3.290;2023-08-24T10:07:52;9.45;;;6.97;;
81901;SDS011;71369;50.796;3.290;2023-08-24T10:10:20;11.30;;;6.97;;
81901;SDS011;71369;50.796;3.290;2023-08-24T10:12:47;12.18;;;8.20;;
81901;SDS011;71369;50.796;3.290;2023-08-24T10:15:19;11.02;;;7.53;;
81901;SDS011;71369;50.796;3.290;2023-08-24T10:17:48;8.95;;;5.93;;
81901;SDS011;71369;50.796;3.290;2023-08-24T10:20:18;7.90;;;5.32;;
81901;SDS011;71369;50.796;3.290;2023-08-24T10:22:45;10.25;;;6.05;;
81901;SDS011;71369;50.796;3.290;2023-08-24T10:25:12;8.02;;;6.15;;
81901;SDS011;71369;50.796;3.290;2023-08-24T10:27:39;10.93;;;6.78;;
81901;SDS011;71369;50.796;3.290;2023-08-24T10:30:12;11.23;;;6.57;;
81901;SDS011;71369;50.796;3.290;2023-08-24T10:32:41;9.23;;;6.47;;
81901;SDS011;71369;50.796;3.290;2023-08-24T10:35:10;9.88;;;6.53;;
81901;SDS011;71369;50.796;3.290;2023-08-24T10:37:36;12.50;;;6.20;;
81901;SDS011;71369;50.796;3.290;2023-08-24T10:40:02;8.38;;;6.22;;
81901;SDS011;71369;50.796;3.290;2023-08-24T10:42:42;10.63;;;5.95;;
81901;SDS011;71369;50.796;3.290;2023-08-24T10:45:13;9.20;;;6.05;;
81901;SDS011;71369;50.796;3.290;2023-08-24T10:47:46;9.18;;;6.22;;
81901;SDS011;71369;50.796;3.290;2023-08-24T10:50:12;8.88;;;6.43;;
81901;SDS011;71369;50.796;3.290;2023-08-24T10:52:39;11.40;;;6.75;;
81901;SDS011;71369;50.796;3.290;2023-08-24T10:55:22;10.57;;;6.25;;
81901;SDS011;71369;50.796;3.290;2023-08-24T10:58:22;9.40;;;6.40;;
81901;SDS011;71369;50.796;3.290;2023-08-24T11:00:42;10.35;;;6.32;;
81901;SDS011;71369;50.796;3.290;2023-08-24T11:03:14;10.88;;;6.15;;
81901;SDS011;71369;50.796;3.290;2023-08-24T11:05:57;8.75;;;5.90;;
81901;SDS011;71369;50.796;3.290;2023-08-24T11:08:22;10.65;;;6.07;;
81901;SDS011;71369;50.796;3.290;2023-08-24T11:11:21;11.60;;;6.18;;
81901;SDS011;71369;50.796;3.290;2023-08-24T11:16:38;9.88;;;6.47;;
81901;SDS011;71369;50.796;3.290;2023-08-24T11:19:06;9.60;;;6.10;;
81901;SDS011;71369;50.796;3.290;2023-08-24T11:21:33;9.00;;;6.20;;
81901;SDS011;71369;50.796;3.290;2023-08-24T11:24:01;10.68;;;6.85;;
81901;SDS011;71369;50.796;3.290;2023-08-24T11:26:27;8.15;;;6.60;;
81901;SDS011;71369;50.796;3.290;2023-08-24T11:28:54;9.68;;;7.05;;
81901;SDS011;71369;50.796;3.290;2023-08-24T11:31:23;10.40;;;7.40;;
81901;SDS011;71369;50.796;3.290;2023-08-24T11:33:53;10.88;;;7.18;;
81901;SDS011;71369;50.796;3.290;2023-08-24T11:36:22;10.32;;;7.55;;
81901;SDS011;71369;50.796;3.290;2023-08-24T11:38:55;8.02;;;7.22;;
81901;SDS011;71369;50.796;3.290;2023-08-24T11:41:22;11.77;;;7.65;;
81901;SDS011;71369;50.796;3.290;2023-08-24T11:43:49;10.85;;;8.57;;
81901;SDS011;71369;50.796;3.290;2023-08-24T11:46:23;8.88;;;7.22;;
81901;SDS011;71369;50.796;3.290;2023-08-24T11:48:48;10.45;;;8.18;;
81901;SDS011;71369;50.796;3.290;2023-08-24T11:51:14;9.25;;;7.57;;
81901;SDS011;71369;50.796;3.290;2023-08-24T11:53:44;10.13;;;7.95;;
81901;SDS011;71369;50.796;3.290;2023-08-24T11:56:11;10.02;;;7.30;;
81901;SDS011;71369;50.796;3.290;2023-08-24T11:58:41;11.82;;;6.97;;
81901;SDS011;71369;50.796;3.290;2023-08-24T12:01:07;10.05;;;7.07;;
81901;SDS011;71369;50.796;3.290;2023-08-24T12:03:45;9.20;;;7.53;;
81901;SDS011;71369;50.796;3.290;2023-08-24T12:06:14;8.15;;;6.80;;
81901;SDS011;71369;50.796;3.290;2023-08-24T12:08:42;9.23;;;5.95;;
81901;SDS011;71369;50.796;3.290;2023-08-24T12:11:10;8.55;;;6.35;;
81901;SDS011;71369;50.796;3.290;2023-08-24T12:13:49;8.77;;;6.78;;
81901;SDS011;71369;50.796;3.290;2023-08-24T12:16:16;11.50;;;6.95;;
81901;SDS011;71369;50.796;3.290;2023-08-24T12:18:46;9.38;;;6.47;;
81901;SDS011;71369;50.796;3.290;2023-08-24T12:21:20;8.00;;;6.00;;
81901;SDS011;71369;50.796;3.290;2023-08-24T12:26:31;8.05;;;6.13;;
81901;SDS011;71369;50.796;3.290;2023-08-24T12:29:04;9.85;;;6.30;;
81901;SDS011;71369;50.796;3.290;2023-08-24T12:31:31;8.30;;;6.30;;
81901;SDS011;71369;50.796;3.290;2023-08-24T12:34:02;9.63;;;5.82;;
81901;SDS011;71369;50.796;3.290;2023-08-24T12:36:28;6.75;;;5.50;;
81901;SDS011;71369;50.796;3.290;2023-08-24T12:38:58;9.60;;;6.38;;
81901;SDS011;71369;50.796;3.290;2023-08-24T12:41:24;8.50;;;5.90;;
81901;SDS011;71369;50.796;3.290;2023-08-24T12:43:50;7.90;;;5.20;;
81901;SDS011;71369;50.796;3.290;2023-08-24T12:46:17;7.25;;;5.82;;
81901;SDS011;71369;50.796;3.290;2023-08-24T12:48:43;13.85;;;6.53;;
81901;SDS011;71369;50.796;3.290;2023-08-24T12:51:08;9.02;;;5.47;;
81901;SDS011;71369;50.796;3.290;2023-08-24T12:53:34;9.43;;;5.20;;
81901;SDS011;71369;50.796;3.290;2023-08-24T12:56:00;9.45;;;5.63;;
81901;SDS011;71369;50.796;3.290;2023-08-24T12:58:25;7.68;;;5.18;;
81901;SDS011;71369;50.796;3.290;2023-08-24T13:00:51;9.70;;;5.40;;
81901;SDS011;71369;50.796;3.290;2023-08-24T13:03:17;8.57;;;5.10;;
81901;SDS011;71369;50.796;3.290;2023-08-24T13:05:43;7.75;;;4.82;;
81901;SDS011;71369;50.796;3.290;2023-08-24T13:08:08;8.43;;;5.50;;
81901;SDS011;71369;50.796;3.290;2023-08-24T13:10:34;7.45;;;4.78;;
81901;SDS011;71369;50.796;3.290;2023-08-24T13:13:02;12.00;;;4.60;;
81901;SDS011;71369;50.796;3.290;2023-08-24T13:15:30;7.15;;;4.45;;
81901;SDS011;71369;50.796;3.290;2023-08-24T13:17:56;10.68;;;4.80;;
81901;SDS011;71369;50.796;3.290;2023-08-24T13:20:22;6.57;;;3.78;;
81901;SDS011;71369;50.796;3.290;2023-08-24T13:22:48;10.15;;;4.38;;
81901;SDS011;71369;50.796;3.290;2023-08-24T13:25:14;6.47;;;3.78;;
81901;SDS011;71369;50.796;3.290;2023-08-24T13:27:40;5.85;;;4.32;;
81901;SDS011;71369;50.796;3.290;2023-08-24T13:30:06;7.53;;;4.22;;
81901;SDS011;71369;50.796;3.290;2023-08-24T13:32:32;8.93;;;4.70;;
81901;SDS011;71369;50.796;3.290;2023-08-24T13:35:00;5.35;;;4.32;;
81901;SDS011;71369;50.796;3.290;2023-08-24T13:37:26;7.43;;;4.03;;
81901;SDS011;71369;50.796;3.290;2023-08-24T13:39:51;7.43;;;3.97;;
81901;SDS011;71369;50.796;3.290;2023-08-24T13:42:17;4.47;;;3.28;;
81901;SDS011;71369;50.796;3.290;2023-08-24T13:44:44;5.82;;;3.22;;
81901;SDS011;71369;50.796;3.290;2023-08-24T13:47:11;5.20;;;3.30;;
81901;SDS011;71369;50.796;3.290;2023-08-24T13:49:36;4.82;;;3.13;;
81901;SDS011;71369;50.796;3.290;2023-08-24T13:52:02;6.00;;;3.53;;
81901;SDS011;71369;50.796;3.290;2023-08-24T13:54:28;5.65;;;3.30;;
81901;SDS011;71369;50.796;3.290;2023-08-24T13:56:55;4.45;;;3.30;;
81901;SDS011;71369;50.796;3.290;2023-08-24T13:59:26;5.18;;;3.03;;
81901;SDS011;71369;50.796;3.290;2023-08-24T14:01:52;8.05;;;3.63;;
81901;SDS011;71369;50.796;3.290;2023-08-24T14:04:17;5.05;;;3.20;;
81901;SDS011;71369;50.796;3.290;2023-08-24T14:06:44;8.48;;;3.55;;
81901;SDS011;71369;50.796;3.290;2023-08-24T14:09:10;5.93;;;3.40;;
81901;SDS011;71369;50.796;3.290;2023-08-24T14:11:36;5.00;;;4.00;;
81901;SDS011;71369;50.796;3.290;2023-08-24T14:14:01;5.65;;;3.88;;
81901;SDS011;71369;50.796;3.290;2023-08-24T14:16:27;4.80;;;3.78;;
81901;SDS011;71369;50.796;3.290;2023-08-24T14:18:53;5.65;;;3.40;;
81901;SDS011;71369;50.796;3.290;2023-08-24T14:21:19;4.97;;;3.33;;
81901;SDS011;71369;50.796;3.290;2023-08-24T14:23:45;5.70;;;3.45;;
81901;SDS011;71369;50.796;3.290;2023-08-24T14:26:11;7.75;;;3.63;;
81901;SDS011;71369;50.796;3.290;2023-08-24T14:28:57;7.35;;;3.60;;
81901;SDS011;71369;50.796;3.290;2023-08-24T14:31:32;5.80;;;3.28;;
81901;SDS011;71369;50.796;3.290;2023-08-24T14:33:57;7.03;;;3.22;;
81901;SDS011;71369;50.796;3.290;2023-08-24T14:36:23;7.68;;;3.42;;
81901;SDS011;71369;50.796;3.290;2023-08-24T14:38:49;5.50;;;3.40;;
81901;SDS011;71369;50.796;3.290;2023-08-24T14:41:17;5.28;;;3.30;;
81901;SDS011;71369;50.796;3.290;2023-08-24T14:43:45;5.60;;;3.20;;
81901;SDS011;71369;50.796;3.290;2023-08-24T14:46:12;4.72;;;3.05;;
81901;SDS011;71369;50.796;3.290;2023-08-24T14:48:38;5.35;;;3.35;;
81901;SDS011;71369;50.796;3.290;2023-08-24T14:51:04;6.95;;;3.25;;
81901;SDS011;71369;50.796;3.290;2023-08-24T14:53:30;5.70;;;2.90;;
81901;SDS011;71369;50.796;3.290;2023-08-24T14:55:56;5.30;;;2.70;;
81901;SDS011;71369;50.796;3.290;2023-08-24T14:58:23;5.00;;;2.90;;